sensor_id;sensor_type;location;lat;lon;timestamp;temperature;humidity
34768;DHT22;21755;43.608;1.236;2022-10-18T00:01:39;19.30;99.90
34768;DHT22;21755;43.608;1.236;2022-10-18T00:04:05;19.30;99.90
34768;DHT22;21755;43.608;1.236;2022-10-18T00:06:31;19.20;99.90
34768;DHT22;21755;43.608;1.236;2022-10-18T00:08:57;19.20;99.90
34768;DHT22;21755;43.608;1.236;2022-10-18T00:11:23;19.20;99.90
34768;DHT22;21755;43.608;1.236;2022-10-18T00:13:49;19.20;99.90
34768;DHT22;21755;43.608;1.236;2022-10-18T00:16:16;19.20;99.90
34768;DHT22;21755;43.608;1.236;2022-10-18T00:18:43;19.20;99.90
34768;DHT22;21755;43.608;1.236;2022-10-18T00:21:18;19.20;99.90
34768;DHT22;21755;43.608;1.236;2022-10-18T00:23:45;19.10;99.90
34768;DHT22;21755;43.608;1.236;2022-10-18T00:26:14;19.10;99.90
34768;DHT22;21755;43.608;1.236;2022-10-18T00:28:41;19.10;99.90
34768;DHT22;21755;43.608;1.236;2022-10-18T00:31:32;19.10;99.90
34768;DHT22;21755;43.608;1.236;2022-10-18T00:34:01;19.10;99.90
34768;DHT22;21755;43.608;1.236;2022-10-18T00:36:29;19.10;99.90
34768;DHT22;21755;43.608;1.236;2022-10-18T00:38:56;19.20;99.90
34768;DHT22;21755;43.608;1.236;2022-10-18T00:41:25;19.10;99.90
34768;DHT22;21755;43.608;1.236;2022-10-18T00:44:00;19.10;99.90
34768;DHT22;21755;43.608;1.236;2022-10-18T00:46:29;19.10;99.90
34768;DHT22;21755;43.608;1.236;2022-10-18T00:48:58;19.10;99.90
34768;DHT22;21755;43.608;1.236;2022-10-18T00:51:28;19.10;99.90
34768;DHT22;21755;43.608;1.236;2022-10-18T00:53:55;19.10;99.90
34768;DHT22;21755;43.608;1.236;2022-10-18T00:56:22;19.10;99.90
34768;DHT22;21755;43.608;1.236;2022-10-18T00:58:48;19.10;99.90
34768;DHT22;21755;43.608;1.236;2022-10-18T01:01:15;19.10;99.90
34768;DHT22;21755;43.608;1.236;2022-10-18T01:03:42;19.10;99.90
34768;DHT22;21755;43.608;1.236;2022-10-18T01:06:08;19.10;99.90
34768;DHT22;21755;43.608;1.236;2022-10-18T01:14:42;19.10;99.90
34768;DHT22;21755;43.608;1.236;2022-10-18T01:17:27;19.20;99.90
34768;DHT22;21755;43.608;1.236;2022-10-18T01:20:54;19.10;99.90
34768;DHT22;21755;43.608;1.236;2022-10-18T01:23:18;19.10;99.90
34768;DHT22;21755;43.608;1.236;2022-10-18T01:25:54;19.10;99.90
34768;DHT22;21755;43.608;1.236;2022-10-18T01:31:08;19.10;99.90
34768;DHT22;21755;43.608;1.236;2022-10-18T01:33:50;19.10;99.90
34768;DHT22;21755;43.608;1.236;2022-10-18T01:36:51;19.10;99.90
34768;DHT22;21755;43.608;1.236;2022-10-18T01:39:15;19.10;99.90
34768;DHT22;21755;43.608;1.236;2022-10-18T01:41:44;19.10;99.90
34768;DHT22;21755;43.608;1.236;2022-10-18T01:44:15;19.10;99.90
34768;DHT22;21755;43.608;1.236;2022-10-18T01:46:43;19.10;99.90
34768;DHT22;21755;43.608;1.236;2022-10-18T01:49:10;19.10;99.90
34768;DHT22;21755;43.608;1.236;2022-10-18T01:51:36;19.00;99.90
34768;DHT22;21755;43.608;1.236;2022-10-18T01:54:02;19.00;99.90
34768;DHT22;21755;43.608;1.236;2022-10-18T01:59:20;19.00;99.90
34768;DHT22;21755;43.608;1.236;2022-10-18T02:04:42;19.00;99.90
34768;DHT22;21755;43.608;1.236;2022-10-18T02:07:22;19.00;99.90
34768;DHT22;21755;43.608;1.236;2022-10-18T02:10:23;19.00;99.90
34768;DHT22;21755;43.608;1.236;2022-10-18T02:12:53;19.00;99.90
34768;DHT22;21755;43.608;1.236;2022-10-18T02:15:34;19.00;99.90
34768;DHT22;21755;43.608;1.236;2022-10-18T02:18:05;19.00;99.90
34768;DHT22;21755;43.608;1.236;2022-10-18T02:20:33;19.00;99.90
34768;DHT22;21755;43.608;1.236;2022-10-18T02:23:02;19.00;99.90
34768;DHT22;21755;43.608;1.236;2022-10-18T02:25:30;19.00;99.90
34768;DHT22;21755;43.608;1.236;2022-10-18T02:27:57;18.90;99.90
34768;DHT22;21755;43.608;1.236;2022-10-18T02:30:43;19.00;99.90
34768;DHT22;21755;43.608;1.236;2022-10-18T02:33:17;19.00;99.90
34768;DHT22;21755;43.608;1.236;2022-10-18T02:35:50;18.90;99.90
34768;DHT22;21755;43.608;1.236;2022-10-18T02:38:18;18.90;99.90
34768;DHT22;21755;43.608;1.236;2022-10-18T02:40:45;18.90;99.90
34768;DHT22;21755;43.608;1.236;2022-10-18T02:43:13;18.90;99.90
34768;DHT22;21755;43.608;1.236;2022-10-18T02:45:39;18.80;99.90
34768;DHT22;21755;43.608;1.236;2022-10-18T02:48:05;18.80;99.90
34768;DHT22;21755;43.608;1.236;2022-10-18T02:50:32;18.80;99.90
34768;DHT22;21755;43.608;1.236;2022-10-18T02:52:58;18.80;99.90
34768;DHT22;21755;43.608;1.236;2022-10-18T02:55:24;18.80;99.90
34768;DHT22;21755;43.608;1.236;2022-10-18T02:57:50;18.80;99.90
34768;DHT22;21755;43.608;1.236;2022-10-18T03:00:16;18.80;99.90
34768;DHT22;21755;43.608;1.236;2022-10-18T03:02:42;18.80;99.90
34768;DHT22;21755;43.608;1.236;2022-10-18T03:05:08;18.80;99.90
34768;DHT22;21755;43.608;1.236;2022-10-18T03:07:34;18.70;99.90
34768;DHT22;21755;43.608;1.236;2022-10-18T03:10:00;18.70;99.90
34768;DHT22;21755;43.608;1.236;2022-10-18T03:12:26;18.70;99.90
34768;DHT22;21755;43.608;1.236;2022-10-18T03:14:52;18.70;99.90
34768;DHT22;21755;43.608;1.236;2022-10-18T03:17:18;18.70;99.90
34768;DHT22;21755;43.608;1.236;2022-10-18T03:19:44;18.70;99.90
34768;DHT22;21755;43.608;1.236;2022-10-18T03:22:10;18.70;99.90
34768;DHT22;21755;43.608;1.236;2022-10-18T03:24:36;18.70;99.90
34768;DHT22;21755;43.608;1.236;2022-10-18T03:27:02;18.70;99.90
34768;DHT22;21755;43.608;1.236;2022-10-18T03:29:28;18.70;99.90
34768;DHT22;21755;43.608;1.236;2022-10-18T03:31:54;18.70;99.90
34768;DHT22;21755;43.608;1.236;2022-10-18T03:34:20;18.60;99.90
34768;DHT22;21755;43.608;1.236;2022-10-18T03:36:46;18.60;99.90
34768;DHT22;21755;43.608;1.236;2022-10-18T03:39:12;18.60;99.90
34768;DHT22;21755;43.608;1.236;2022-10-18T03:41:38;18.70;99.90
34768;DHT22;21755;43.608;1.236;2022-10-18T03:44:04;18.60;99.90
34768;DHT22;21755;43.608;1.236;2022-10-18T03:46:30;18.60;99.90
34768;DHT22;21755;43.608;1.236;2022-10-18T03:48:56;18.60;99.90
34768;DHT22;21755;43.608;1.236;2022-10-18T03:51:22;18.60;99.90
34768;DHT22;21755;43.608;1.236;2022-10-18T03:53:48;18.60;99.90
34768;DHT22;21755;43.608;1.236;2022-10-18T03:56:14;18.60;99.90
34768;DHT22;21755;43.608;1.236;2022-10-18T03:58:40;18.60;99.90
34768;DHT22;21755;43.608;1.236;2022-10-18T04:01:06;18.60;99.90
34768;DHT22;21755;43.608;1.236;2022-10-18T04:03:32;18.50;99.90
34768;DHT22;21755;43.608;1.236;2022-10-18T04:05:58;18.60;99.90
34768;DHT22;21755;43.608;1.236;2022-10-18T04:08:25;18.50;99.90
34768;DHT22;21755;43.608;1.236;2022-10-18T04:10:51;18.50;99.90
34768;DHT22;21755;43.608;1.236;2022-10-18T04:13:18;18.50;99.90
34768;DHT22;21755;43.608;1.236;2022-10-18T04:15:44;18.50;99.90
34768;DHT22;21755;43.608;1.236;2022-10-18T04:18:10;18.50;99.90
34768;DHT22;21755;43.608;1.236;2022-10-18T04:20:36;18.50;99.90
34768;DHT22;21755;43.608;1.236;2022-10-18T04:23:02;18.50;99.90
34768;DHT22;21755;43.608;1.236;2022-10-18T04:25:28;18.60;99.90
34768;DHT22;21755;43.608;1.236;2022-10-18T04:27:54;18.60;99.90
34768;DHT22;21755;43.608;1.236;2022-10-18T04:30:20;18.60;99.90
34768;DHT22;21755;43.608;1.236;2022-10-18T04:32:46;18.60;99.90
34768;DHT22;21755;43.608;1.236;2022-10-18T04:35:12;18.60;99.90
34768;DHT22;21755;43.608;1.236;2022-10-18T04:37:38;18.60;99.90
34768;DHT22;21755;43.608;1.236;2022-10-18T04:40:06;18.70;99.90
34768;DHT22;21755;43.608;1.236;2022-10-18T04:42:32;18.70;99.90
34768;DHT22;21755;43.608;1.236;2022-10-18T04:44:58;18.60;99.90
34768;DHT22;21755;43.608;1.236;2022-10-18T04:47:24;18.70;99.90
34768;DHT22;21755;43.608;1.236;2022-10-18T04:49:50;18.70;99.90
34768;DHT22;21755;43.608;1.236;2022-10-18T04:52:16;18.70;99.90
34768;DHT22;21755;43.608;1.236;2022-10-18T04:54:42;18.70;99.90
34768;DHT22;21755;43.608;1.236;2022-10-18T04:57:08;18.60;99.90
34768;DHT22;21755;43.608;1.236;2022-10-18T04:59:34;18.60;99.90
34768;DHT22;21755;43.608;1.236;2022-10-18T05:02:02;18.60;99.90
34768;DHT22;21755;43.608;1.236;2022-10-18T05:04:29;18.60;99.90
34768;DHT22;21755;43.608;1.236;2022-10-18T05:06:55;18.60;99.90
34768;DHT22;21755;43.608;1.236;2022-10-18T05:09:21;18.60;99.90
34768;DHT22;21755;43.608;1.236;2022-10-18T05:11:49;18.60;99.90
34768;DHT22;21755;43.608;1.236;2022-10-18T05:14:16;18.60;99.90
34768;DHT22;21755;43.608;1.236;2022-10-18T05:16:42;18.60;99.90
34768;DHT22;21755;43.608;1.236;2022-10-18T05:19:09;18.60;99.90
34768;DHT22;21755;43.608;1.236;2022-10-18T05:21:35;18.60;99.90
34768;DHT22;21755;43.608;1.236;2022-10-18T05:24:01;18.70;99.90
34768;DHT22;21755;43.608;1.236;2022-10-18T05:26:27;18.70;99.90
34768;DHT22;21755;43.608;1.236;2022-10-18T05:28:53;18.70;99.90
34768;DHT22;21755;43.608;1.236;2022-10-18T05:31:19;18.70;99.90
34768;DHT22;21755;43.608;1.236;2022-10-18T05:33:46;18.70;99.90
34768;DHT22;21755;43.608;1.236;2022-10-18T05:36:12;18.80;99.90
34768;DHT22;21755;43.608;1.236;2022-10-18T05:38:39;18.80;99.90
34768;DHT22;21755;43.608;1.236;2022-10-18T05:41:07;18.80;99.90
34768;DHT22;21755;43.608;1.236;2022-10-18T05:43:34;18.90;99.90
34768;DHT22;21755;43.608;1.236;2022-10-18T05:46:00;19.00;99.90
34768;DHT22;21755;43.608;1.236;2022-10-18T05:48:26;19.10;99.90
34768;DHT22;21755;43.608;1.236;2022-10-18T05:50:52;19.20;99.90
34768;DHT22;21755;43.608;1.236;2022-10-18T05:53:20;19.20;99.90
34768;DHT22;21755;43.608;1.236;2022-10-18T05:55:46;19.00;99.90
34768;DHT22;21755;43.608;1.236;2022-10-18T05:58:12;19.10;99.90
34768;DHT22;21755;43.608;1.236;2022-10-18T06:00:37;19.00;99.90
34768;DHT22;21755;43.608;1.236;2022-10-18T06:03:04;19.00;99.90
34768;DHT22;21755;43.608;1.236;2022-10-18T06:05:30;19.00;99.90
34768;DHT22;21755;43.608;1.236;2022-10-18T06:07:56;19.00;99.90
34768;DHT22;21755;43.608;1.236;2022-10-18T06:10:22;19.00;99.90
34768;DHT22;21755;43.608;1.236;2022-10-18T06:12:48;19.00;99.90
34768;DHT22;21755;43.608;1.236;2022-10-18T06:15:14;19.00;99.90
34768;DHT22;21755;43.608;1.236;2022-10-18T06:17:40;19.00;99.90
34768;DHT22;21755;43.608;1.236;2022-10-18T06:20:07;19.10;99.90
34768;DHT22;21755;43.608;1.236;2022-10-18T06:22:33;19.10;99.90
34768;DHT22;21755;43.608;1.236;2022-10-18T06:24:59;19.00;99.90
34768;DHT22;21755;43.608;1.236;2022-10-18T06:27:25;19.00;99.90
34768;DHT22;21755;43.608;1.236;2022-10-18T06:29:51;19.00;99.90
34768;DHT22;21755;43.608;1.236;2022-10-18T06:32:17;19.00;99.90
34768;DHT22;21755;43.608;1.236;2022-10-18T06:34:44;19.10;99.90
34768;DHT22;21755;43.608;1.236;2022-10-18T06:37:10;19.10;99.90
34768;DHT22;21755;43.608;1.236;2022-10-18T06:39:36;19.20;99.90
34768;DHT22;21755;43.608;1.236;2022-10-18T06:42:02;19.10;99.90
34768;DHT22;21755;43.608;1.236;2022-10-18T06:44:28;19.10;99.90
34768;DHT22;21755;43.608;1.236;2022-10-18T06:46:55;19.10;99.90
34768;DHT22;21755;43.608;1.236;2022-10-18T06:49:21;19.10;99.90
34768;DHT22;21755;43.608;1.236;2022-10-18T06:51:47;19.10;99.90
34768;DHT22;21755;43.608;1.236;2022-10-18T06:54:14;19.10;99.90
34768;DHT22;21755;43.608;1.236;2022-10-18T06:56:40;19.10;99.90
34768;DHT22;21755;43.608;1.236;2022-10-18T06:59:06;19.20;99.90
34768;DHT22;21755;43.608;1.236;2022-10-18T07:01:32;19.20;99.90
34768;DHT22;21755;43.608;1.236;2022-10-18T07:03:58;19.20;99.90
34768;DHT22;21755;43.608;1.236;2022-10-18T07:06:24;19.20;99.90
34768;DHT22;21755;43.608;1.236;2022-10-18T07:08:51;19.20;99.90
34768;DHT22;21755;43.608;1.236;2022-10-18T07:11:22;19.30;99.90
34768;DHT22;21755;43.608;1.236;2022-10-18T07:13:50;19.30;99.90
34768;DHT22;21755;43.608;1.236;2022-10-18T07:16:18;19.40;99.90
34768;DHT22;21755;43.608;1.236;2022-10-18T07:18:47;19.40;99.90
34768;DHT22;21755;43.608;1.236;2022-10-18T07:21:17;19.50;99.90
34768;DHT22;21755;43.608;1.236;2022-10-18T07:23:44;19.50;99.90
34768;DHT22;21755;43.608;1.236;2022-10-18T07:28:39;19.60;99.90
34768;DHT22;21755;43.608;1.236;2022-10-18T07:31:07;19.60;99.90
34768;DHT22;21755;43.608;1.236;2022-10-18T07:33:34;19.60;99.90
34768;DHT22;21755;43.608;1.236;2022-10-18T07:36:01;19.70;99.90
34768;DHT22;21755;43.608;1.236;2022-10-18T07:38:28;19.70;99.90
34768;DHT22;21755;43.608;1.236;2022-10-18T07:40:58;19.80;99.90
34768;DHT22;21755;43.608;1.236;2022-10-18T07:43:25;19.90;99.90
34768;DHT22;21755;43.608;1.236;2022-10-18T07:45:53;19.90;99.90
34768;DHT22;21755;43.608;1.236;2022-10-18T07:48:19;20.00;99.90
34768;DHT22;21755;43.608;1.236;2022-10-18T07:50:45;20.00;99.90
34768;DHT22;21755;43.608;1.236;2022-10-18T07:53:12;20.10;99.90
34768;DHT22;21755;43.608;1.236;2022-10-18T07:55:38;20.10;99.90
34768;DHT22;21755;43.608;1.236;2022-10-18T07:58:04;20.20;99.90
34768;DHT22;21755;43.608;1.236;2022-10-18T08:00:30;20.30;99.90
34768;DHT22;21755;43.608;1.236;2022-10-18T08:02:57;20.30;99.90
34768;DHT22;21755;43.608;1.236;2022-10-18T08:05:24;20.40;99.90
34768;DHT22;21755;43.608;1.236;2022-10-18T08:07:52;20.40;99.90
34768;DHT22;21755;43.608;1.236;2022-10-18T08:10:19;20.50;99.90
34768;DHT22;21755;43.608;1.236;2022-10-18T08:12:45;20.70;99.90
34768;DHT22;21755;43.608;1.236;2022-10-18T08:15:11;20.70;99.90
34768;DHT22;21755;43.608;1.236;2022-10-18T08:17:38;20.80;99.90
34768;DHT22;21755;43.608;1.236;2022-10-18T08:20:04;20.80;99.90
34768;DHT22;21755;43.608;1.236;2022-10-18T08:22:31;20.90;99.90
34768;DHT22;21755;43.608;1.236;2022-10-18T08:24:57;21.00;99.90
34768;DHT22;21755;43.608;1.236;2022-10-18T08:27:23;21.00;99.90
34768;DHT22;21755;43.608;1.236;2022-10-18T08:29:51;21.10;99.90
34768;DHT22;21755;43.608;1.236;2022-10-18T08:32:17;21.20;99.90
34768;DHT22;21755;43.608;1.236;2022-10-18T08:34:43;21.30;99.90
34768;DHT22;21755;43.608;1.236;2022-10-18T08:37:09;21.30;99.90
34768;DHT22;21755;43.608;1.236;2022-10-18T08:39:35;21.40;99.90
34768;DHT22;21755;43.608;1.236;2022-10-18T08:44:49;21.60;99.90
34768;DHT22;21755;43.608;1.236;2022-10-18T08:47:37;21.60;99.90
34768;DHT22;21755;43.608;1.236;2022-10-18T08:50:13;21.70;99.90
34768;DHT22;21755;43.608;1.236;2022-10-18T08:57:51;21.80;99.90
34768;DHT22;21755;43.608;1.236;2022-10-18T09:00:20;21.90;99.90
34768;DHT22;21755;43.608;1.236;2022-10-18T09:05:48;22.00;99.90
34768;DHT22;21755;43.608;1.236;2022-10-18T09:08:18;22.10;99.90
34768;DHT22;21755;43.608;1.236;2022-10-18T09:25:35;22.70;99.90
34768;DHT22;21755;43.608;1.236;2022-10-18T09:36:23;22.90;99.90
34768;DHT22;21755;43.608;1.236;2022-10-18T09:38:58;22.90;99.90
34768;DHT22;21755;43.608;1.236;2022-10-18T09:41:40;23.00;99.90
34768;DHT22;21755;43.608;1.236;2022-10-18T09:44:26;23.10;99.90
34768;DHT22;21755;43.608;1.236;2022-10-18T09:47:15;23.10;99.90
34768;DHT22;21755;43.608;1.236;2022-10-18T09:49:51;23.20;99.90
34768;DHT22;21755;43.608;1.236;2022-10-18T09:52:24;23.20;99.90
34768;DHT22;21755;43.608;1.236;2022-10-18T09:54:55;23.20;99.90
34768;DHT22;21755;43.608;1.236;2022-10-18T09:57:35;23.30;99.90
34768;DHT22;21755;43.608;1.236;2022-10-18T10:00:05;23.40;99.90
34768;DHT22;21755;43.608;1.236;2022-10-18T10:02:31;23.50;99.90
34768;DHT22;21755;43.608;1.236;2022-10-18T10:04:57;23.50;99.90
34768;DHT22;21755;43.608;1.236;2022-10-18T10:07:32;23.50;99.90
34768;DHT22;21755;43.608;1.236;2022-10-18T10:12:37;23.70;99.90
34768;DHT22;21755;43.608;1.236;2022-10-18T10:15:14;23.70;99.90
34768;DHT22;21755;43.608;1.236;2022-10-18T10:17:42;23.80;99.90
34768;DHT22;21755;43.608;1.236;2022-10-18T10:20:19;24.00;99.90
34768;DHT22;21755;43.608;1.236;2022-10-18T10:22:46;24.10;99.90
34768;DHT22;21755;43.608;1.236;2022-10-18T10:25:29;24.00;99.90
34768;DHT22;21755;43.608;1.236;2022-10-18T10:28:06;24.00;99.90
34768;DHT22;21755;43.608;1.236;2022-10-18T10:30:34;24.00;99.90
34768;DHT22;21755;43.608;1.236;2022-10-18T10:33:01;24.10;99.90
34768;DHT22;21755;43.608;1.236;2022-10-18T10:35:33;24.00;99.90
34768;DHT22;21755;43.608;1.236;2022-10-18T10:37:59;24.10;99.90
34768;DHT22;21755;43.608;1.236;2022-10-18T10:40:34;24.20;99.90
34768;DHT22;21755;43.608;1.236;2022-10-18T10:43:27;24.20;99.90
34768;DHT22;21755;43.608;1.236;2022-10-18T10:46:14;24.20;99.90
34768;DHT22;21755;43.608;1.236;2022-10-18T10:51:36;24.20;99.90
34768;DHT22;21755;43.608;1.236;2022-10-18T10:54:17;24.20;99.90
34768;DHT22;21755;43.608;1.236;2022-10-18T10:56:57;24.20;99.90
34768;DHT22;21755;43.608;1.236;2022-10-18T10:59:26;24.20;99.90
34768;DHT22;21755;43.608;1.236;2022-10-18T11:04:40;24.30;99.90
34768;DHT22;21755;43.608;1.236;2022-10-18T11:07:35;24.40;99.90
34768;DHT22;21755;43.608;1.236;2022-10-18T11:10:11;24.50;99.90
34768;DHT22;21755;43.608;1.236;2022-10-18T11:13:42;24.50;99.90
34768;DHT22;21755;43.608;1.236;2022-10-18T11:16:16;24.60;99.90
34768;DHT22;21755;43.608;1.236;2022-10-18T11:18:48;24.70;99.90
34768;DHT22;21755;43.608;1.236;2022-10-18T11:21:19;24.70;99.90
34768;DHT22;21755;43.608;1.236;2022-10-18T11:23:47;24.80;99.90
34768;DHT22;21755;43.608;1.236;2022-10-18T11:26:25;25.00;99.90
34768;DHT22;21755;43.608;1.236;2022-10-18T11:32:31;25.10;99.90
34768;DHT22;21755;43.608;1.236;2022-10-18T11:35:04;25.10;99.90
34768;DHT22;21755;43.608;1.236;2022-10-18T11:43:34;25.40;99.90
34768;DHT22;21755;43.608;1.236;2022-10-18T11:49:02;25.30;99.90
34768;DHT22;21755;43.608;1.236;2022-10-18T11:51:57;25.40;99.90
34768;DHT22;21755;43.608;1.236;2022-10-18T11:54:50;25.50;99.90
34768;DHT22;21755;43.608;1.236;2022-10-18T12:00:18;25.50;99.90
34768;DHT22;21755;43.608;1.236;2022-10-18T12:03:17;25.50;99.90
34768;DHT22;21755;43.608;1.236;2022-10-18T12:05:46;25.50;99.90
34768;DHT22;21755;43.608;1.236;2022-10-18T12:10:51;25.60;99.90
34768;DHT22;21755;43.608;1.236;2022-10-18T12:13:26;25.60;99.90
34768;DHT22;21755;43.608;1.236;2022-10-18T12:15:54;25.60;99.90
34768;DHT22;21755;43.608;1.236;2022-10-18T12:18:23;25.60;99.90
34768;DHT22;21755;43.608;1.236;2022-10-18T12:20:57;25.70;99.90
34768;DHT22;21755;43.608;1.236;2022-10-18T12:23:53;25.70;99.90
34768;DHT22;21755;43.608;1.236;2022-10-18T12:26:20;25.70;99.90
34768;DHT22;21755;43.608;1.236;2022-10-18T12:28:59;25.70;99.90
34768;DHT22;21755;43.608;1.236;2022-10-18T12:31:45;25.70;99.90
34768;DHT22;21755;43.608;1.236;2022-10-18T12:37:24;25.80;99.90
34768;DHT22;21755;43.608;1.236;2022-10-18T12:39:48;25.80;99.90
34768;DHT22;21755;43.608;1.236;2022-10-18T12:42:26;25.80;99.90
34768;DHT22;21755;43.608;1.236;2022-10-18T12:45:05;25.80;99.90
34768;DHT22;21755;43.608;1.236;2022-10-18T12:47:41;25.80;99.90
34768;DHT22;21755;43.608;1.236;2022-10-18T12:50:28;25.80;99.90
34768;DHT22;21755;43.608;1.236;2022-10-18T12:55:39;25.80;99.90
34768;DHT22;21755;43.608;1.236;2022-10-18T13:16:23;26.10;99.90
34768;DHT22;21755;43.608;1.236;2022-10-18T13:21:51;25.90;99.90
34768;DHT22;21755;43.608;1.236;2022-10-18T13:33:07;26.00;99.90
34768;DHT22;21755;43.608;1.236;2022-10-18T13:35:48;26.00;99.90
34768;DHT22;21755;43.608;1.236;2022-10-18T13:41:20;26.10;99.90
34768;DHT22;21755;43.608;1.236;2022-10-18T13:49:33;26.10;99.90
34768;DHT22;21755;43.608;1.236;2022-10-18T14:06:42;26.00;99.90
34768;DHT22;21755;43.608;1.236;2022-10-18T14:09:19;26.00;99.90
34768;DHT22;21755;43.608;1.236;2022-10-18T14:12:42;26.00;99.90
34768;DHT22;21755;43.608;1.236;2022-10-18T14:15:04;26.00;99.90
34768;DHT22;21755;43.608;1.236;2022-10-18T14:17:40;26.00;99.90
34768;DHT22;21755;43.608;1.236;2022-10-18T14:20:36;26.00;99.90
34768;DHT22;21755;43.608;1.236;2022-10-18T14:23:24;26.00;99.90
34768;DHT22;21755;43.608;1.236;2022-10-18T14:26:05;26.00;99.90
34768;DHT22;21755;43.608;1.236;2022-10-18T14:28:31;25.90;99.90
34768;DHT22;21755;43.608;1.236;2022-10-18T14:31:01;25.90;99.90
34768;DHT22;21755;43.608;1.236;2022-10-18T14:33:37;25.90;99.90
34768;DHT22;21755;43.608;1.236;2022-10-18T14:36:22;26.00;99.90
34768;DHT22;21755;43.608;1.236;2022-10-18T14:38:57;25.90;99.90
34768;DHT22;21755;43.608;1.236;2022-10-18T14:41:36;25.90;99.90
34768;DHT22;21755;43.608;1.236;2022-10-18T14:46:50;25.80;99.90
34768;DHT22;21755;43.608;1.236;2022-10-18T14:49:19;25.70;99.90
34768;DHT22;21755;43.608;1.236;2022-10-18T14:51:48;25.60;99.90
34768;DHT22;21755;43.608;1.236;2022-10-18T14:54:20;25.50;99.90
34768;DHT22;21755;43.608;1.236;2022-10-18T14:56:47;25.40;99.90
34768;DHT22;21755;43.608;1.236;2022-10-18T14:59:28;25.30;99.90
34768;DHT22;21755;43.608;1.236;2022-10-18T15:02:09;25.30;99.90
34768;DHT22;21755;43.608;1.236;2022-10-18T15:04:37;25.30;99.90
34768;DHT22;21755;43.608;1.236;2022-10-18T15:07:06;25.30;99.90
34768;DHT22;21755;43.608;1.236;2022-10-18T15:09:34;25.30;99.90
34768;DHT22;21755;43.608;1.236;2022-10-18T15:12:02;25.20;99.90
34768;DHT22;21755;43.608;1.236;2022-10-18T15:14:30;25.20;99.90
34768;DHT22;21755;43.608;1.236;2022-10-18T15:17:03;25.20;99.90
34768;DHT22;21755;43.608;1.236;2022-10-18T15:19:34;25.10;99.90
34768;DHT22;21755;43.608;1.236;2022-10-18T15:22:04;25.00;99.90
34768;DHT22;21755;43.608;1.236;2022-10-18T15:24:35;24.90;99.90
34768;DHT22;21755;43.608;1.236;2022-10-18T15:27:13;24.90;99.90
34768;DHT22;21755;43.608;1.236;2022-10-18T15:29:40;24.80;99.90
34768;DHT22;21755;43.608;1.236;2022-10-18T15:32:20;24.70;99.90
34768;DHT22;21755;43.608;1.236;2022-10-18T15:34:49;24.80;99.90
34768;DHT22;21755;43.608;1.236;2022-10-18T15:37:31;24.70;99.90
34768;DHT22;21755;43.608;1.236;2022-10-18T15:42:55;24.60;99.90
34768;DHT22;21755;43.608;1.236;2022-10-18T15:48:00;24.60;99.90
34768;DHT22;21755;43.608;1.236;2022-10-18T15:50:47;24.60;99.90
34768;DHT22;21755;43.608;1.236;2022-10-18T15:55:50;24.40;99.90
34768;DHT22;21755;43.608;1.236;2022-10-18T15:58:41;24.30;99.90
34768;DHT22;21755;43.608;1.236;2022-10-18T16:01:15;24.20;99.90
34768;DHT22;21755;43.608;1.236;2022-10-18T16:03:42;24.00;99.90
34768;DHT22;21755;43.608;1.236;2022-10-18T16:06:10;23.90;99.90
34768;DHT22;21755;43.608;1.236;2022-10-18T16:08:42;23.70;99.90
34768;DHT22;21755;43.608;1.236;2022-10-18T16:11:14;23.60;99.90
34768;DHT22;21755;43.608;1.236;2022-10-18T16:13:41;23.50;99.90
34768;DHT22;21755;43.608;1.236;2022-10-18T16:16:11;23.40;99.90
34768;DHT22;21755;43.608;1.236;2022-10-18T16:18:38;23.30;99.90
34768;DHT22;21755;43.608;1.236;2022-10-18T16:21:05;23.20;99.90
34768;DHT22;21755;43.608;1.236;2022-10-18T16:23:31;23.10;99.90
34768;DHT22;21755;43.608;1.236;2022-10-18T16:25:57;23.00;99.90
34768;DHT22;21755;43.608;1.236;2022-10-18T16:28:24;22.90;99.90
34768;DHT22;21755;43.608;1.236;2022-10-18T16:30:54;22.90;99.90
34768;DHT22;21755;43.608;1.236;2022-10-18T16:33:22;22.90;99.90
34768;DHT22;21755;43.608;1.236;2022-10-18T16:35:48;22.80;99.90
34768;DHT22;21755;43.608;1.236;2022-10-18T16:38:26;22.80;99.90
34768;DHT22;21755;43.608;1.236;2022-10-18T16:40:53;22.70;99.90
34768;DHT22;21755;43.608;1.236;2022-10-18T16:43:19;22.60;99.90
34768;DHT22;21755;43.608;1.236;2022-10-18T16:45:45;22.60;99.90
34768;DHT22;21755;43.608;1.236;2022-10-18T16:48:14;22.50;99.90
34768;DHT22;21755;43.608;1.236;2022-10-18T16:50:41;22.50;99.90
34768;DHT22;21755;43.608;1.236;2022-10-18T16:53:07;22.40;99.90
34768;DHT22;21755;43.608;1.236;2022-10-18T16:55:33;22.30;99.90
34768;DHT22;21755;43.608;1.236;2022-10-18T16:57:59;22.30;99.90
34768;DHT22;21755;43.608;1.236;2022-10-18T17:00:25;22.30;99.90
34768;DHT22;21755;43.608;1.236;2022-10-18T17:02:51;22.20;99.90
34768;DHT22;21755;43.608;1.236;2022-10-18T17:05:18;22.10;99.90
34768;DHT22;21755;43.608;1.236;2022-10-18T17:07:45;22.00;99.90
34768;DHT22;21755;43.608;1.236;2022-10-18T17:10:17;22.00;99.90
34768;DHT22;21755;43.608;1.236;2022-10-18T17:12:44;21.90;99.90
34768;DHT22;21755;43.608;1.236;2022-10-18T17:15:10;21.90;99.90
34768;DHT22;21755;43.608;1.236;2022-10-18T17:17:38;21.80;99.90
34768;DHT22;21755;43.608;1.236;2022-10-18T17:20:05;21.80;99.90
34768;DHT22;21755;43.608;1.236;2022-10-18T17:22:32;21.80;99.90
34768;DHT22;21755;43.608;1.236;2022-10-18T17:24:58;21.70;99.90
34768;DHT22;21755;43.608;1.236;2022-10-18T17:27:24;21.60;99.90
34768;DHT22;21755;43.608;1.236;2022-10-18T17:29:50;21.60;99.90
34768;DHT22;21755;43.608;1.236;2022-10-18T17:32:16;21.60;99.90
34768;DHT22;21755;43.608;1.236;2022-10-18T17:34:42;21.50;99.90
34768;DHT22;21755;43.608;1.236;2022-10-18T17:37:08;21.50;99.90
34768;DHT22;21755;43.608;1.236;2022-10-18T17:39:35;21.50;99.90
34768;DHT22;21755;43.608;1.236;2022-10-18T17:42:03;21.40;99.90
34768;DHT22;21755;43.608;1.236;2022-10-18T17:44:30;21.40;99.90
34768;DHT22;21755;43.608;1.236;2022-10-18T17:46:56;21.30;99.90
34768;DHT22;21755;43.608;1.236;2022-10-18T17:49:22;21.30;99.90
34768;DHT22;21755;43.608;1.236;2022-10-18T17:51:48;21.30;99.90
34768;DHT22;21755;43.608;1.236;2022-10-18T17:54:17;21.20;99.90
34768;DHT22;21755;43.608;1.236;2022-10-18T17:56:43;21.20;99.90
34768;DHT22;21755;43.608;1.236;2022-10-18T17:59:10;21.10;99.90
34768;DHT22;21755;43.608;1.236;2022-10-18T18:01:37;21.10;99.90
34768;DHT22;21755;43.608;1.236;2022-10-18T18:04:03;21.10;99.90
34768;DHT22;21755;43.608;1.236;2022-10-18T18:06:35;21.00;99.90
34768;DHT22;21755;43.608;1.236;2022-10-18T18:09:07;21.00;99.90
34768;DHT22;21755;43.608;1.236;2022-10-18T18:11:35;21.00;99.90
34768;DHT22;21755;43.608;1.236;2022-10-18T18:14:02;20.90;99.90
34768;DHT22;21755;43.608;1.236;2022-10-18T18:16:33;20.90;99.90